sensor_id;sensor_type;location;lat;lon;timestamp;P1;durP1;ratioP1;P2;durP2;ratioP2
65879;SDS011;52661;51.364;6.054;2023-05-10T00:00:36;7.10;;;3.00;;
65879;SDS011;52661;51.364;6.054;2023-05-10T00:03:02;6.70;;;3.17;;
65879;SDS011;52661;51.364;6.054;2023-05-10T00:07:55;7.03;;;2.42;;
65879;SDS011;52661;51.364;6.054;2023-05-10T00:10:20;6.70;;;2.53;;
65879;SDS011;52661;51.364;6.054;2023-05-10T00:12:45;7.47;;;3.10;;
65879;SDS011;52661;51.364;6.054;2023-05-10T00:15:11;6.40;;;2.37;;
65879;SDS011;52661;51.364;6.054;2023-05-10T00:17:36;5.77;;;2.37;;
65879;SDS011;52661;51.364;6.054;2023-05-10T00:20:01;6.28;;;2.38;;
65879;SDS011;52661;51.364;6.054;2023-05-10T00:22:29;5.40;;;2.05;;
65879;SDS011;52661;51.364;6.054;2023-05-10T00:24:55;5.47;;;1.98;;
65879;SDS011;52661;51.364;6.054;2023-05-10T00:27:20;3.83;;;1.83;;
65879;SDS011;52661;51.364;6.054;2023-05-10T00:29:46;5.57;;;1.80;;
65879;SDS011;52661;51.364;6.054;2023-05-10T00:32:11;5.47;;;1.67;;
65879;SDS011;52661;51.364;6.054;2023-05-10T00:34:36;5.13;;;1.90;;
65879;SDS011;52661;51.364;6.054;2023-05-10T00:37:01;4.00;;;1.60;;
65879;SDS011;52661;51.364;6.054;2023-05-10T00:39:27;4.97;;;1.83;;
65879;SDS011;52661;51.364;6.054;2023-05-10T00:41:53;5.28;;;1.98;;
65879;SDS011;52661;51.364;6.054;2023-05-10T00:44:19;5.68;;;2.35;;
65879;SDS011;52661;51.364;6.054;2023-05-10T00:46:44;4.75;;;1.80;;
65879;SDS011;52661;51.364;6.054;2023-05-10T00:49:10;4.30;;;1.75;;
65879;SDS011;52661;51.364;6.054;2023-05-10T00:51:36;4.18;;;1.60;;
65879;SDS011;52661;51.364;6.054;2023-05-10T00:54:01;4.85;;;1.88;;
65879;SDS011;52661;51.364;6.054;2023-05-10T00:56:27;4.68;;;1.92;;
65879;SDS011;52661;51.364;6.054;2023-05-10T00:58:54;5.32;;;2.33;;
65879;SDS011;52661;51.364;6.054;2023-05-10T01:01:20;4.43;;;1.77;;
65879;SDS011;52661;51.364;6.054;2023-05-10T01:03:46;4.88;;;1.83;;
65879;SDS011;52661;51.364;6.054;2023-05-10T01:06:12;4.45;;;1.85;;
65879;SDS011;52661;51.364;6.054;2023-05-10T01:08:37;5.70;;;1.95;;
65879;SDS011;52661;51.364;6.054;2023-05-10T01:11:03;4.70;;;2.08;;
65879;SDS011;52661;51.364;6.054;2023-05-10T01:16:03;5.35;;;2.25;;
65879;SDS011;52661;51.364;6.054;2023-05-10T01:18:36;4.97;;;2.53;;
65879;SDS011;52661;51.364;6.054;2023-05-10T01:21:08;7.93;;;3.15;;
65879;SDS011;52661;51.364;6.054;2023-05-10T01:32:19;10.30;;;4.15;;
65879;SDS011;52661;51.364;6.054;2023-05-10T01:37:31;11.30;;;4.65;;
65879;SDS011;52661;51.364;6.054;2023-05-10T01:40:29;12.10;;;4.90;;
65879;SDS011;52661;51.364;6.054;2023-05-10T01:43:01;13.02;;;4.53;;
65879;SDS011;52661;51.364;6.054;2023-05-10T01:45:34;12.77;;;5.28;;
65879;SDS011;52661;51.364;6.054;2023-05-10T01:50:37;16.15;;;5.68;;
65879;SDS011;52661;51.364;6.054;2023-05-10T01:53:08;12.15;;;5.53;;
65879;SDS011;52661;51.364;6.054;2023-05-10T01:55:43;14.13;;;5.55;;
65879;SDS011;52661;51.364;6.054;2023-05-10T01:58:17;13.30;;;5.53;;
65879;SDS011;52661;51.364;6.054;2023-05-10T02:00:46;13.35;;;5.38;;
65879;SDS011;52661;51.364;6.054;2023-05-10T02:03:14;12.98;;;5.43;;
65879;SDS011;52661;51.364;6.054;2023-05-10T02:05:41;11.68;;;4.43;;
65879;SDS011;52661;51.364;6.054;2023-05-10T02:08:10;13.73;;;5.18;;
65879;SDS011;52661;51.364;6.054;2023-05-10T02:10:36;10.18;;;4.30;;
65879;SDS011;52661;51.364;6.054;2023-05-10T02:13:04;13.10;;;5.15;;
65879;SDS011;52661;51.364;6.054;2023-05-10T02:15:32;13.18;;;5.47;;
65879;SDS011;52661;51.364;6.054;2023-05-10T02:17:58;13.50;;;4.75;;
65879;SDS011;52661;51.364;6.054;2023-05-10T02:20:25;12.82;;;6.15;;
65879;SDS011;52661;51.364;6.054;2023-05-10T02:22:52;11.45;;;5.15;;
65879;SDS011;52661;51.364;6.054;2023-05-10T02:25:21;14.15;;;5.97;;
65879;SDS011;52661;51.364;6.054;2023-05-10T02:27:48;13.25;;;6.18;;
65879;SDS011;52661;51.364;6.054;2023-05-10T02:30:15;13.05;;;5.20;;
65879;SDS011;52661;51.364;6.054;2023-05-10T02:32:43;15.73;;;4.93;;
65879;SDS011;52661;51.364;6.054;2023-05-10T02:35:09;15.57;;;6.78;;
65879;SDS011;52661;51.364;6.054;2023-05-10T02:37:36;13.10;;;5.50;;
65879;SDS011;52661;51.364;6.054;2023-05-10T02:40:03;15.18;;;6.03;;
65879;SDS011;52661;51.364;6.054;2023-05-10T02:42:31;13.93;;;5.13;;
65879;SDS011;52661;51.364;6.054;2023-05-10T02:45:00;15.50;;;6.93;;
65879;SDS011;52661;51.364;6.054;2023-05-10T02:47:28;16.23;;;6.25;;
65879;SDS011;52661;51.364;6.054;2023-05-10T02:49:54;17.67;;;7.93;;
65879;SDS011;52661;51.364;6.054;2023-05-10T02:52:21;17.58;;;6.95;;
65879;SDS011;52661;51.364;6.054;2023-05-10T02:54:51;15.20;;;6.88;;
65879;SDS011;52661;51.364;6.054;2023-05-10T02:57:22;21.92;;;8.07;;
65879;SDS011;52661;51.364;6.054;2023-05-10T02:59:52;19.50;;;7.30;;
65879;SDS011;52661;51.364;6.054;2023-05-10T03:02:17;24.83;;;9.50;;
65879;SDS011;52661;51.364;6.054;2023-05-10T03:04:43;23.42;;;9.02;;
65879;SDS011;52661;51.364;6.054;2023-05-10T03:07:08;24.90;;;9.70;;
65879;SDS011;52661;51.364;6.054;2023-05-10T03:09:34;24.55;;;10.57;;
65879;SDS011;52661;51.364;6.054;2023-05-10T03:12:16;27.67;;;11.93;;
65879;SDS011;52661;51.364;6.054;2023-05-10T03:15:12;28.10;;;10.27;;
65879;SDS011;52661;51.364;6.054;2023-05-10T03:17:54;29.08;;;11.13;;
65879;SDS011;52661;51.364;6.054;2023-05-10T03:20:24;27.30;;;10.45;;
65879;SDS011;52661;51.364;6.054;2023-05-10T03:23:00;27.83;;;10.15;;
65879;SDS011;52661;51.364;6.054;2023-05-10T03:25:36;25.85;;;10.00;;
65879;SDS011;52661;51.364;6.054;2023-05-10T03:28:02;27.23;;;11.68;;
65879;SDS011;52661;51.364;6.054;2023-05-10T03:30:29;24.95;;;10.70;;
65879;SDS011;52661;51.364;6.054;2023-05-10T03:32:55;32.75;;;11.05;;
65879;SDS011;52661;51.364;6.054;2023-05-10T03:35:21;28.13;;;12.25;;
65879;SDS011;52661;51.364;6.054;2023-05-10T03:37:48;28.92;;;10.98;;
65879;SDS011;52661;51.364;6.054;2023-05-10T03:40:13;27.87;;;11.37;;
65879;SDS011;52661;51.364;6.054;2023-05-10T03:42:39;24.38;;;10.68;;
65879;SDS011;52661;51.364;6.054;2023-05-10T03:45:04;27.30;;;13.20;;
65879;SDS011;52661;51.364;6.054;2023-05-10T03:47:30;27.25;;;11.20;;
65879;SDS011;52661;51.364;6.054;2023-05-10T03:49:56;28.73;;;10.57;;
65879;SDS011;52661;51.364;6.054;2023-05-10T03:52:22;30.25;;;11.13;;
65879;SDS011;52661;51.364;6.054;2023-05-10T03:54:47;26.17;;;10.53;;
65879;SDS011;52661;51.364;6.054;2023-05-10T03:57:12;29.03;;;11.10;;
65879;SDS011;52661;51.364;6.054;2023-05-10T03:59:38;27.45;;;11.15;;
65879;SDS011;52661;51.364;6.054;2023-05-10T04:02:03;30.03;;;11.53;;
65879;SDS011;52661;51.364;6.054;2023-05-10T04:04:28;27.05;;;10.05;;
65879;SDS011;52661;51.364;6.054;2023-05-10T04:06:53;28.70;;;10.67;;
65879;SDS011;52661;51.364;6.054;2023-05-10T04:09:22;28.40;;;11.23;;
65879;SDS011;52661;51.364;6.054;2023-05-10T04:11:47;24.67;;;9.43;;
65879;SDS011;52661;51.364;6.054;2023-05-10T04:14:12;27.63;;;10.63;;
65879;SDS011;52661;51.364;6.054;2023-05-10T04:16:38;32.42;;;11.38;;
65879;SDS011;52661;51.364;6.054;2023-05-10T04:19:03;35.92;;;12.93;;
65879;SDS011;52661;51.364;6.054;2023-05-10T04:21:29;32.13;;;11.38;;
65879;SDS011;52661;51.364;6.054;2023-05-10T04:23:54;32.15;;;11.82;;
65879;SDS011;52661;51.364;6.054;2023-05-10T04:26:19;34.63;;;12.15;;
65879;SDS011;52661;51.364;6.054;2023-05-10T04:28:45;41.88;;;13.32;;
65879;SDS011;52661;51.364;6.054;2023-05-10T04:31:10;34.63;;;10.57;;
65879;SDS011;52661;51.364;6.054;2023-05-10T04:33:36;36.85;;;12.68;;
65879;SDS011;52661;51.364;6.054;2023-05-10T04:36:02;35.17;;;12.13;;
65879;SDS011;52661;51.364;6.054;2023-05-10T04:38:28;36.28;;;12.55;;
65879;SDS011;52661;51.364;6.054;2023-05-10T04:40:54;36.10;;;11.50;;
65879;SDS011;52661;51.364;6.054;2023-05-10T04:43:19;39.15;;;12.40;;
65879;SDS011;52661;51.364;6.054;2023-05-10T04:45:45;40.47;;;12.68;;
65879;SDS011;52661;51.364;6.054;2023-05-10T04:48:10;32.72;;;11.88;;
65879;SDS011;52661;51.364;6.054;2023-05-10T04:50:36;37.72;;;11.63;;
65879;SDS011;52661;51.364;6.054;2023-05-10T04:53:01;35.63;;;11.95;;
65879;SDS011;52661;51.364;6.054;2023-05-10T04:55:27;36.40;;;12.60;;
65879;SDS011;52661;51.364;6.054;2023-05-10T04:57:52;36.15;;;11.88;;
65879;SDS011;52661;51.364;6.054;2023-05-10T05:02:45;32.10;;;10.88;;
65879;SDS011;52661;51.364;6.054;2023-05-10T05:05:11;32.75;;;10.50;;
65879;SDS011;52661;51.364;6.054;2023-05-10T05:07:37;33.90;;;13.15;;
65879;SDS011;52661;51.364;6.054;2023-05-10T05:10:03;37.45;;;11.07;;
65879;SDS011;52661;51.364;6.054;2023-05-10T05:12:32;30.27;;;11.38;;
65879;SDS011;52661;51.364;6.054;2023-05-10T05:14:58;29.20;;;12.15;;
65879;SDS011;52661;51.364;6.054;2023-05-10T05:17:23;31.48;;;11.25;;
65879;SDS011;52661;51.364;6.054;2023-05-10T05:19:48;35.47;;;10.90;;
65879;SDS011;52661;51.364;6.054;2023-05-10T05:22:14;34.90;;;12.37;;
65879;SDS011;52661;51.364;6.054;2023-05-10T05:24:39;35.33;;;10.63;;
65879;SDS011;52661;51.364;6.054;2023-05-10T05:27:05;37.00;;;12.15;;
65879;SDS011;52661;51.364;6.054;2023-05-10T05:29:31;34.00;;;11.68;;
65879;SDS011;52661;51.364;6.054;2023-05-10T05:31:56;32.92;;;11.25;;
65879;SDS011;52661;51.364;6.054;2023-05-10T05:34:21;31.70;;;11.05;;
65879;SDS011;52661;51.364;6.054;2023-05-10T05:36:47;29.55;;;9.75;;
65879;SDS011;52661;51.364;6.054;2023-05-10T05:39:13;37.55;;;10.25;;
65879;SDS011;52661;51.364;6.054;2023-05-10T05:41:39;33.22;;;10.43;;
65879;SDS011;52661;51.364;6.054;2023-05-10T05:44:04;32.50;;;10.50;;
65879;SDS011;52661;51.364;6.054;2023-05-10T05:46:29;39.15;;;13.10;;
65879;SDS011;52661;51.364;6.054;2023-05-10T05:48:55;39.75;;;12.10;;
65879;SDS011;52661;51.364;6.054;2023-05-10T05:51:20;35.45;;;12.05;;
65879;SDS011;52661;51.364;6.054;2023-05-10T05:53:46;34.03;;;11.52;;
65879;SDS011;52661;51.364;6.054;2023-05-10T05:56:11;37.13;;;11.27;;
65879;SDS011;52661;51.364;6.054;2023-05-10T05:58:36;36.88;;;11.70;;
65879;SDS011;52661;51.364;6.054;2023-05-10T06:01:02;34.63;;;11.70;;
65879;SDS011;52661;51.364;6.054;2023-05-10T06:03:27;37.00;;;11.80;;
65879;SDS011;52661;51.364;6.054;2023-05-10T06:05:52;34.33;;;11.97;;
65879;SDS011;52661;51.364;6.054;2023-05-10T06:08:18;37.90;;;13.10;;
65879;SDS011;52661;51.364;6.054;2023-05-10T06:10:43;30.80;;;10.70;;
65879;SDS011;52661;51.364;6.054;2023-05-10T06:13:09;35.15;;;11.93;;
65879;SDS011;52661;51.364;6.054;2023-05-10T06:15:34;33.08;;;10.57;;
65879;SDS011;52661;51.364;6.054;2023-05-10T06:18:00;42.20;;;15.02;;
65879;SDS011;52661;51.364;6.054;2023-05-10T06:20:25;35.33;;;11.50;;
65879;SDS011;52661;51.364;6.054;2023-05-10T06:22:51;34.45;;;11.88;;
65879;SDS011;52661;51.364;6.054;2023-05-10T06:25:16;33.15;;;9.07;;
65879;SDS011;52661;51.364;6.054;2023-05-10T06:27:42;38.28;;;10.90;;
65879;SDS011;52661;51.364;6.054;2023-05-10T06:30:08;38.13;;;12.32;;
65879;SDS011;52661;51.364;6.054;2023-05-10T06:32:34;34.70;;;11.70;;
65879;SDS011;52661;51.364;6.054;2023-05-10T06:34:59;31.90;;;10.60;;
65879;SDS011;52661;51.364;6.054;2023-05-10T06:37:25;34.05;;;11.82;;
65879;SDS011;52661;51.364;6.054;2023-05-10T06:39:50;34.03;;;11.17;;
65879;SDS011;52661;51.364;6.054;2023-05-10T06:42:15;28.37;;;10.00;;
65879;SDS011;52661;51.364;6.054;2023-05-10T06:44:40;31.77;;;11.27;;
65879;SDS011;52661;51.364;6.054;2023-05-10T06:47:06;33.60;;;11.50;;
65879;SDS011;52661;51.364;6.054;2023-05-10T06:49:32;31.08;;;10.73;;
65879;SDS011;52661;51.364;6.054;2023-05-10T06:51:57;29.80;;;10.60;;
65879;SDS011;52661;51.364;6.054;2023-05-10T06:54:22;32.10;;;12.00;;
65879;SDS011;52661;51.364;6.054;2023-05-10T06:56:48;31.00;;;12.50;;
65879;SDS011;52661;51.364;6.054;2023-05-10T06:59:13;32.65;;;10.40;;
65879;SDS011;52661;51.364;6.054;2023-05-10T07:01:40;33.38;;;11.75;;
65879;SDS011;52661;51.364;6.054;2023-05-10T07:04:05;29.00;;;11.43;;
65879;SDS011;52661;51.364;6.054;2023-05-10T07:06:32;31.13;;;11.43;;
65879;SDS011;52661;51.364;6.054;2023-05-10T07:08:58;26.08;;;9.88;;
65879;SDS011;52661;51.364;6.054;2023-05-10T07:11:23;27.63;;;10.27;;
65879;SDS011;52661;51.364;6.054;2023-05-10T07:13:49;23.53;;;9.03;;
65879;SDS011;52661;51.364;6.054;2023-05-10T07:16:14;23.17;;;8.13;;
65879;SDS011;52661;51.364;6.054;2023-05-10T07:18:40;25.83;;;9.45;;
65879;SDS011;52661;51.364;6.054;2023-05-10T07:21:05;20.50;;;8.73;;
65879;SDS011;52661;51.364;6.054;2023-05-10T07:23:31;21.75;;;9.55;;
65879;SDS011;52661;51.364;6.054;2023-05-10T07:25:56;24.10;;;10.23;;
65879;SDS011;52661;51.364;6.054;2023-05-10T07:28:22;19.00;;;7.40;;
65879;SDS011;52661;51.364;6.054;2023-05-10T07:30:48;21.42;;;9.20;;
65879;SDS011;52661;51.364;6.054;2023-05-10T07:33:13;22.87;;;8.80;;
65879;SDS011;52661;51.364;6.054;2023-05-10T07:35:40;21.92;;;7.93;;
65879;SDS011;52661;51.364;6.054;2023-05-10T07:38:05;23.55;;;9.60;;
65879;SDS011;52661;51.364;6.054;2023-05-10T07:40:31;20.40;;;8.05;;
65879;SDS011;52661;51.364;6.054;2023-05-10T07:42:57;21.42;;;10.23;;
65879;SDS011;52661;51.364;6.054;2023-05-10T07:45:22;23.08;;;9.48;;
65879;SDS011;52661;51.364;6.054;2023-05-10T07:47:48;21.90;;;8.73;;
65879;SDS011;52661;51.364;6.054;2023-05-10T07:50:13;23.33;;;8.68;;
65879;SDS011;52661;51.364;6.054;2023-05-10T07:52:39;21.50;;;7.85;;
65879;SDS011;52661;51.364;6.054;2023-05-10T07:55:04;25.47;;;9.07;;
65879;SDS011;52661;51.364;6.054;2023-05-10T07:57:30;21.77;;;9.07;;
65879;SDS011;52661;51.364;6.054;2023-05-10T07:59:55;23.30;;;8.60;;
65879;SDS011;52661;51.364;6.054;2023-05-10T08:02:21;21.93;;;8.77;;
65879;SDS011;52661;51.364;6.054;2023-05-10T08:04:46;22.07;;;8.80;;
65879;SDS011;52661;51.364;6.054;2023-05-10T08:07:11;21.47;;;8.17;;
65879;SDS011;52661;51.364;6.054;2023-05-10T08:09:37;21.33;;;9.70;;
65879;SDS011;52661;51.364;6.054;2023-05-10T08:12:02;21.58;;;7.30;;
65879;SDS011;52661;51.364;6.054;2023-05-10T08:14:28;22.35;;;7.90;;
65879;SDS011;52661;51.364;6.054;2023-05-10T08:16:54;20.17;;;8.18;;
65879;SDS011;52661;51.364;6.054;2023-05-10T08:19:20;23.58;;;8.20;;
65879;SDS011;52661;51.364;6.054;2023-05-10T08:21:46;21.20;;;8.13;;
65879;SDS011;52661;51.364;6.054;2023-05-10T08:24:12;22.10;;;8.60;;
65879;SDS011;52661;51.364;6.054;2023-05-10T08:26:38;21.60;;;8.60;;
65879;SDS011;52661;51.364;6.054;2023-05-10T08:29:03;21.23;;;8.20;;
65879;SDS011;52661;51.364;6.054;2023-05-10T08:31:29;21.70;;;7.57;;
65879;SDS011;52661;51.364;6.054;2023-05-10T08:33:54;19.70;;;8.32;;
65879;SDS011;52661;51.364;6.054;2023-05-10T08:36:20;21.25;;;8.25;;
65879;SDS011;52661;51.364;6.054;2023-05-10T08:38:53;23.95;;;8.73;;
65879;SDS011;52661;51.364;6.054;2023-05-10T08:41:22;18.60;;;7.45;;
65879;SDS011;52661;51.364;6.054;2023-05-10T08:43:54;20.25;;;7.93;;
65879;SDS011;52661;51.364;6.054;2023-05-10T08:46:21;18.13;;;9.00;;
65879;SDS011;52661;51.364;6.054;2023-05-10T08:48:47;22.00;;;8.95;;
65879;SDS011;52661;51.364;6.054;2023-05-10T08:51:15;21.95;;;8.98;;
65879;SDS011;52661;51.364;6.054;2023-05-10T08:53:43;23.42;;;8.48;;
65879;SDS011;52661;51.364;6.054;2023-05-10T08:56:09;20.50;;;8.55;;
65879;SDS011;52661;51.364;6.054;2023-05-10T08:58:34;21.52;;;8.60;;
65879;SDS011;52661;51.364;6.054;2023-05-10T09:01:00;24.17;;;8.80;;
65879;SDS011;52661;51.364;6.054;2023-05-10T09:03:25;22.67;;;8.73;;
65879;SDS011;52661;51.364;6.054;2023-05-10T09:05:51;18.70;;;7.70;;
65879;SDS011;52661;51.364;6.054;2023-05-10T09:08:17;24.02;;;8.82;;
65879;SDS011;52661;51.364;6.054;2023-05-10T09:10:43;21.98;;;8.73;;
65879;SDS011;52661;51.364;6.054;2023-05-10T09:13:10;15.57;;;6.80;;
65879;SDS011;52661;51.364;6.054;2023-05-10T09:15:36;14.15;;;6.40;;
65879;SDS011;52661;51.364;6.054;2023-05-10T09:18:02;15.85;;;5.80;;
65879;SDS011;52661;51.364;6.054;2023-05-10T09:20:27;15.15;;;6.05;;
65879;SDS011;52661;51.364;6.054;2023-05-10T09:22:53;13.93;;;6.35;;
65879;SDS011;52661;51.364;6.054;2023-05-10T09:25:18;19.58;;;8.48;;
65879;SDS011;52661;51.364;6.054;2023-05-10T09:27:45;14.18;;;5.85;;
65879;SDS011;52661;51.364;6.054;2023-05-10T09:30:15;16.13;;;7.35;;
65879;SDS011;52661;51.364;6.054;2023-05-10T09:32:42;13.82;;;5.82;;
65879;SDS011;52661;51.364;6.054;2023-05-10T09:35:13;15.63;;;5.82;;
65879;SDS011;52661;51.364;6.054;2023-05-10T09:37:41;12.18;;;5.50;;
65879;SDS011;52661;51.364;6.054;2023-05-10T09:40:19;16.98;;;5.38;;
65879;SDS011;52661;51.364;6.054;2023-05-10T09:43:03;15.50;;;5.60;;
65879;SDS011;52661;51.364;6.054;2023-05-10T09:45:32;14.52;;;6.68;;
65879;SDS011;52661;51.364;6.054;2023-05-10T09:47:59;14.18;;;5.88;;
65879;SDS011;52661;51.364;6.054;2023-05-10T09:50:26;11.70;;;5.88;;
65879;SDS011;52661;51.364;6.054;2023-05-10T09:52:53;13.85;;;5.25;;
65879;SDS011;52661;51.364;6.054;2023-05-10T09:55:21;12.93;;;4.95;;
65879;SDS011;52661;51.364;6.054;2023-05-10T09:57:48;17.90;;;6.57;;
65879;SDS011;52661;51.364;6.054;2023-05-10T10:00:20;13.10;;;5.97;;
65879;SDS011;52661;51.364;6.054;2023-05-10T10:02:47;13.15;;;5.82;;
65879;SDS011;52661;51.364;6.054;2023-05-10T10:05:13;13.40;;;5.40;;
65879;SDS011;52661;51.364;6.054;2023-05-10T10:07:39;12.85;;;6.13;;
65879;SDS011;52661;51.364;6.054;2023-05-10T10:10:08;15.60;;;6.60;;
65879;SDS011;52661;51.364;6.054;2023-05-10T10:12:38;17.92;;;7.13;;
65879;SDS011;52661;51.364;6.054;2023-05-10T10:15:04;16.50;;;7.43;;
65879;SDS011;52661;51.364;6.054;2023-05-10T10:17:31;15.23;;;7.70;;
65879;SDS011;52661;51.364;6.054;2023-05-10T10:19:57;16.13;;;6.35;;
65879;SDS011;52661;51.364;6.054;2023-05-10T10:22:26;15.80;;;6.55;;
65879;SDS011;52661;51.364;6.054;2023-05-10T10:24:51;12.52;;;5.93;;
65879;SDS011;52661;51.364;6.054;2023-05-10T10:35:02;11.73;;;5.60;;
65879;SDS011;52661;51.364;6.054;2023-05-10T10:37:45;13.63;;;5.82;;
65879;SDS011;52661;51.364;6.054;2023-05-10T10:40:24;15.27;;;5.30;;
65879;SDS011;52661;51.364;6.054;2023-05-10T10:42:51;13.50;;;5.35;;
65879;SDS011;52661;51.364;6.054;2023-05-10T10:45:18;11.35;;;6.80;;
65879;SDS011;52661;51.364;6.054;2023-05-10T10:47:44;13.20;;;5.45;;
65879;SDS011;52661;51.364;6.054;2023-05-10T10:50:10;12.10;;;5.68;;
65879;SDS011;52661;51.364;6.054;2023-05-10T10:52:40;13.73;;;5.28;;
65879;SDS011;52661;51.364;6.054;2023-05-10T11:00:21;9.80;;;4.93;;
65879;SDS011;52661;51.364;6.054;2023-05-10T11:07:53;11.38;;;5.32;;
65879;SDS011;52661;51.364;6.054;2023-05-10T11:10:20;12.07;;;6.60;;
65879;SDS011;52661;51.364;6.054;2023-05-10T11:12:53;10.50;;;5.13;;
65879;SDS011;52661;51.364;6.054;2023-05-10T11:15:36;13.90;;;6.32;;
65879;SDS011;52661;51.364;6.054;2023-05-10T11:18:18;11.88;;;5.05;;
65879;SDS011;52661;51.364;6.054;2023-05-10T11:20:49;14.75;;;6.18;;
65879;SDS011;52661;51.364;6.054;2023-05-10T11:23:21;14.40;;;5.80;;
65879;SDS011;52661;51.364;6.054;2023-05-10T11:25:48;13.15;;;6.00;;
65879;SDS011;52661;51.364;6.054;2023-05-10T11:28:14;10.18;;;4.53;;
65879;SDS011;52661;51.364;6.054;2023-05-10T11:30:41;12.02;;;5.60;;
65879;SDS011;52661;51.364;6.054;2023-05-10T11:33:08;11.85;;;6.22;;
65879;SDS011;52661;51.364;6.054;2023-05-10T11:35:38;13.57;;;5.97;;
65879;SDS011;52661;51.364;6.054;2023-05-10T11:38:08;12.50;;;6.32;;
65879;SDS011;52661;51.364;6.054;2023-05-10T11:40:34;14.85;;;6.85;;
65879;SDS011;52661;51.364;6.054;2023-05-10T11:43:00;14.77;;;6.55;;
65879;SDS011;52661;51.364;6.054;2023-05-10T11:45:26;15.55;;;7.40;;
65879;SDS011;52661;51.364;6.054;2023-05-10T11:47:53;17.60;;;7.85;;
65879;SDS011;52661;51.364;6.054;2023-05-10T11:50:18;16.85;;;8.07;;
65879;SDS011;52661;51.364;6.054;2023-05-10T11:52:43;18.35;;;8.90;;
65879;SDS011;52661;51.364;6.054;2023-05-10T11:55:09;17.93;;;8.37;;
65879;SDS011;52661;51.364;6.054;2023-05-10T11:57:34;19.23;;;8.85;;
65879;SDS011;52661;51.364;6.054;2023-05-10T12:00:00;22.15;;;9.80;;
65879;SDS011;52661;51.364;6.054;2023-05-10T12:02:27;21.63;;;9.23;;
65879;SDS011;52661;51.364;6.054;2023-05-10T12:04:54;20.48;;;9.05;;
65879;SDS011;52661;51.364;6.054;2023-05-10T12:07:20;20.75;;;10.05;;
65879;SDS011;52661;51.364;6.054;2023-05-10T12:10:05;20.85;;;9.43;;
65879;SDS011;52661;51.364;6.054;2023-05-10T12:12:44;17.88;;;8.43;;
65879;SDS011;52661;51.364;6.054;2023-05-10T12:17:49;19.48;;;7.93;;
65879;SDS011;52661;51.364;6.054;2023-05-10T12:20:19;15.40;;;7.22;;
65879;SDS011;52661;51.364;6.054;2023-05-10T12:23:04;18.70;;;8.52;;
65879;SDS011;52661;51.364;6.054;2023-05-10T12:25:31;19.20;;;8.45;;
65879;SDS011;52661;51.364;6.054;2023-05-10T12:30:27;19.45;;;8.07;;
65879;SDS011;52661;51.364;6.054;2023-05-10T12:32:58;18.33;;;8.40;;
65879;SDS011;52661;51.364;6.054;2023-05-10T12:35:48;17.83;;;8.90;;
65879;SDS011;52661;51.364;6.054;2023-05-10T12:41:14;18.05;;;8.38;;
65879;SDS011;52661;51.364;6.054;2023-05-10T12:43:43;13.35;;;7.15;;
65879;SDS011;52661;51.364;6.054;2023-05-10T12:48:35;15.40;;;6.30;;
65879;SDS011;52661;51.364;6.054;2023-05-10T12:51:01;12.23;;;5.90;;
65879;SDS011;52661;51.364;6.054;2023-05-10T12:53:28;15.13;;;6.63;;
65879;SDS011;52661;51.364;6.054;2023-05-10T12:55:53;12.23;;;5.43;;
65879;SDS011;52661;51.364;6.054;2023-05-10T12:58:18;11.13;;;5.30;;
65879;SDS011;52661;51.364;6.054;2023-05-10T13:00:44;13.38;;;6.07;;
65879;SDS011;52661;51.364;6.054;2023-05-10T13:03:10;14.98;;;7.55;;
65879;SDS011;52661;51.364;6.054;2023-05-10T13:05:35;14.23;;;6.90;;
65879;SDS011;52661;51.364;6.054;2023-05-10T13:08:01;13.30;;;5.88;;
65879;SDS011;52661;51.364;6.054;2023-05-10T13:10:28;12.98;;;5.93;;
65879;SDS011;52661;51.364;6.054;2023-05-10T13:12:55;10.57;;;5.88;;
65879;SDS011;52661;51.364;6.054;2023-05-10T13:15:20;12.70;;;6.67;;
65879;SDS011;52661;51.364;6.054;2023-05-10T13:17:45;14.32;;;6.50;;
65879;SDS011;52661;51.364;6.054;2023-05-10T13:20:11;11.60;;;5.20;;
65879;SDS011;52661;51.364;6.054;2023-05-10T13:22:36;14.35;;;6.75;;
65879;SDS011;52661;51.364;6.054;2023-05-10T13:25:01;11.73;;;6.57;;
65879;SDS011;52661;51.364;6.054;2023-05-10T13:27:27;11.88;;;6.47;;
65879;SDS011;52661;51.364;6.054;2023-05-10T13:29:53;12.60;;;6.47;;
65879;SDS011;52661;51.364;6.054;2023-05-10T13:32:18;11.70;;;5.60;;
65879;SDS011;52661;51.364;6.054;2023-05-10T13:34:43;10.27;;;5.28;;
65879;SDS011;52661;51.364;6.054;2023-05-10T13:37:09;12.85;;;5.82;;
65879;SDS011;52661;51.364;6.054;2023-05-10T13:39:34;12.77;;;5.50;;
65879;SDS011;52661;51.364;6.054;2023-05-10T13:42:02;10.90;;;6.10;;
65879;SDS011;52661;51.364;6.054;2023-05-10T13:44:28;11.13;;;5.43;;
65879;SDS011;52661;51.364;6.054;2023-05-10T13:46:53;11.10;;;5.77;;
65879;SDS011;52661;51.364;6.054;2023-05-10T13:49:18;14.73;;;6.57;;
65879;SDS011;52661;51.364;6.054;2023-05-10T13:51:43;12.90;;;5.33;;
65879;SDS011;52661;51.364;6.054;2023-05-10T13:54:09;12.57;;;6.23;;
65879;SDS011;52661;51.364;6.054;2023-05-10T13:56:34;14.43;;;6.00;;
65879;SDS011;52661;51.364;6.054;2023-05-10T13:59:00;10.48;;;5.25;;
65879;SDS011;52661;51.364;6.054;2023-05-10T14:01:25;9.57;;;4.50;;
65879;SDS011;52661;51.364;6.054;2023-05-10T14:03:51;10.60;;;5.15;;
65879;SDS011;52661;51.364;6.054;2023-05-10T14:06:16;12.30;;;5.68;;
65879;SDS011;52661;51.364;6.054;2023-05-10T14:08:42;12.10;;;5.15;;
65879;SDS011;52661;51.364;6.054;2023-05-10T14:11:07;9.77;;;5.27;;
65879;SDS011;52661;51.364;6.054;2023-05-10T14:13:33;12.63;;;5.90;;
65879;SDS011;52661;51.364;6.054;2023-05-10T14:15:58;9.98;;;4.25;;
65879;SDS011;52661;51.364;6.054;2023-05-10T14:18:25;10.50;;;5.32;;
65879;SDS011;52661;51.364;6.054;2023-05-10T14:20:51;12.07;;;5.28;;
65879;SDS011;52661;51.364;6.054;2023-05-10T14:23:17;11.95;;;7.32;;
65879;SDS011;52661;51.364;6.054;2023-05-10T14:25:44;9.93;;;5.03;;
65879;SDS011;52661;51.364;6.054;2023-05-10T14:28:09;9.53;;;4.43;;
65879;SDS011;52661;51.364;6.054;2023-05-10T14:30:35;12.25;;;6.40;;
65879;SDS011;52661;51.364;6.054;2023-05-10T14:33:01;12.55;;;6.30;;
65879;SDS011;52661;51.364;6.054;2023-05-10T14:35:28;16.95;;;7.07;;
65879;SDS011;52661;51.364;6.054;2023-05-10T14:37:53;15.43;;;6.72;;
65879;SDS011;52661;51.364;6.054;2023-05-10T14:40:18;14.48;;;6.82;;
65879;SDS011;52661;51.364;6.054;2023-05-10T14:42:44;15.55;;;6.78;;
65879;SDS011;52661;51.364;6.054;2023-05-10T14:45:09;19.02;;;7.43;;
65879;SDS011;52661;51.364;6.054;2023-05-10T14:47:36;13.95;;;6.70;;
65879;SDS011;52661;51.364;6.054;2023-05-10T14:50:01;16.38;;;7.25;;
65879;SDS011;52661;51.364;6.054;2023-05-10T14:52:27;12.45;;;6.03;;
65879;SDS011;52661;51.364;6.054;2023-05-10T14:54:52;14.35;;;6.10;;
65879;SDS011;52661;51.364;6.054;2023-05-10T14:57:18;16.10;;;6.68;;
65879;SDS011;52661;51.364;6.054;2023-05-10T14:59:43;16.47;;;5.97;;
65879;SDS011;52661;51.364;6.054;2023-05-10T15:02:09;13.17;;;5.77;;
65879;SDS011;52661;51.364;6.054;2023-05-10T15:04:35;14.27;;;6.00;;
65879;SDS011;52661;51.364;6.054;2023-05-10T15:07:00;14.52;;;6.70;;
65879;SDS011;52661;51.364;6.054;2023-05-10T15:09:26;10.45;;;5.32;;
65879;SDS011;52661;51.364;6.054;2023-05-10T15:11:52;13.57;;;6.53;;
65879;SDS011;52661;51.364;6.054;2023-05-10T15:14:18;13.18;;;5.72;;
65879;SDS011;52661;51.364;6.054;2023-05-10T15:16:43;14.27;;;5.68;;
65879;SDS011;52661;51.364;6.054;2023-05-10T15:19:08;13.00;;;6.13;;
65879;SDS011;52661;51.364;6.054;2023-05-10T15:21:34;17.13;;;7.07;;